• Join FlightAware (Why Join?)
  • Login
  • US Flag 
06:11AM EDT


 

Airport Tracker/Info


-or-


 

Live Flight TrackerFlight Track Log ✈ N93974 ✈ 31-Jul-2013 ✈ 0K7 - KFNL

Flight Track Log - Related Links

Times and Time Zones

All times are in EDT time to prevent confusion due to time zone crossing. See the N93974 flight status page for this flight to view local times or setup timezone preferences in your user account.

Time Position Orientation Groundspeed Altitude Reporting Facility
EDT Latitude Longitude Course Direction KTS MPH feet Rate Location/Type
02:06PM 42.6730 -94.5486 256° West  Level FlightAware Approximate
02:07PM 42.6590 -94.5986 236° Southwest  Level FlightAware Approximate
02:07PM 42.6464 -94.8522 255° West 124 143 6,800  Level Minneapolis Center
02:08PM 42.6500 -94.6491 270° West  Level FlightAware Approximate
02:08PM 42.6372 -94.9039 256° West 119 137 7,100  Level Minneapolis Center
02:09PM 42.6493 -94.7032 255° West  Level FlightAware Approximate
02:09PM 42.6292 -94.9494 257° West 122 140 7,500  Level Minneapolis Center
02:10PM 42.6388 -94.7555 255° West  Level FlightAware Approximate
02:10PM 42.6253 -94.9894 262° West 115 132 8,000  Level Minneapolis Center
02:11PM 42.6282 -94.8078 255° West  Level FlightAware Approximate
02:12PM 42.6175 -94.8601 255° West  Level FlightAware Approximate
02:12PM 42.6181 -95.0339 258° West 117 135 7,900  Level Minneapolis Center
02:13PM 42.6069 -94.9124 255° West  Level FlightAware Approximate
02:13PM 42.6114 -95.0839 260° West 130 150 8,100  Level Minneapolis Center
02:14PM 42.6047 -95.1333 260° West 133 153 8,100 -60 Level Minneapolis Center
02:15PM 42.5919 -95.1953 254° West 140 161 8,000  Descending Minneapolis Center
02:16PM 42.5783 -95.2453 250° West 143 165 8,100  Climbing Minneapolis Center
02:17PM 42.5692 -95.2953 256° West 140 161 8,100  Level Minneapolis Center
02:18PM 42.5661 -95.3383 265° West 140 161 8,100  Level Minneapolis Center
02:19PM 42.5522 -95.3975 252° West 139 160 8,100 -60 Level Minneapolis Center
02:20PM 42.5433 -95.4608 259° West 141 162 8,000 -120 Descending Minneapolis Center
02:21PM 42.5367 -95.5233 262° West 140 161 7,900  Descending Minneapolis Center
02:22PM 42.5269 -95.5744 256° West 141 162 8,000  Climbing Minneapolis Center
02:23PM 42.5183 -95.6278 258° West 143 165 8,000  Level Minneapolis Center
02:24PM 42.5056 -95.6767 250° West 140 161 8,000  Level Minneapolis Center
02:25PM 42.4986 -95.7306 260° West 143 165 8,000  Level Minneapolis Center
02:26PM 42.4886 -95.7814 255° West 143 165 8,000  Level Minneapolis Center
02:27PM 42.4792 -95.8450 259° West 142 163 8,000  Level Minneapolis Center
02:28PM 42.4686 -95.8906 253° West 137 158 8,000  Level Minneapolis Center
02:29PM 42.4617 -95.9417 260° West 137 158 8,000  Level Minneapolis Center
02:30PM 42.4517 -96.0017 257° West 152 175 8,000  Level Minneapolis Center
02:31PM 42.4408 -96.0497 253° West 147 169 8,000  Level Minneapolis Center
02:32PM 42.4356 -96.1072 263° West 146 168 8,000  Level Minneapolis Center
02:33PM 42.4236 -96.1669 255° West 144 166 8,000  Level Minneapolis Center
02:34PM 42.4131 -96.2139 253° West 134 154 8,000 -60 Level Minneapolis Center
02:36PM 42.4042 -96.2658 257° West 138 159 7,900  Descending Minneapolis Center
02:37PM 42.3964 -96.3161 258° West 138 159 8,000  Climbing Minneapolis Center
02:38PM 42.3864 -96.3672 255° West 138 159 8,000  Level Minneapolis Center
02:39PM 42.3767 -96.4194 256° West 142 163 8,000  Level Minneapolis Center
02:40PM 42.3661 -96.4817 257° West 142 163 8,000  Level Minneapolis Center
02:41PM 42.3572 -96.5336 257° West 143 165 8,000  Level Minneapolis Center
02:42PM 42.3481 -96.5836 256° West 139 160 8,000  Level Minneapolis Center
02:43PM 42.3378 -96.6347 255° West 140 161 8,000  Level Minneapolis Center
02:44PM 42.3294 -96.6867 258° West 141 162 8,000  Level Minneapolis Center
02:45PM 42.3214 -96.7472 260° West 138 159 8,000  Level Minneapolis Center
02:46PM 42.3103 -96.7989 254° West 141 162 8,000  Level Minneapolis Center
02:47PM 42.3019 -96.8489 257° West 140 161 8,000  Level Minneapolis Center
02:48PM 42.2906 -96.8981 253° West 137 158 8,000  Level Minneapolis Center
02:49PM 42.2819 -96.9472 257° West 137 158 8,000  Level Minneapolis Center
02:50PM 42.2711 -96.9989 254° West 138 159 8,000  Level Minneapolis Center
02:51PM 42.2567 -97.0614 253° West 142 163 8,000  Level Minneapolis Center
02:52PM 42.2494 -97.1089 258° West 139 160 8,000  Level Minneapolis Center
02:53PM 42.2433 -97.1656 262° West 134 154 8,000  Level Minneapolis Center
02:54PM 42.2347 -97.2097 255° West 129 148 8,000  Level Minneapolis Center
02:55PM 42.2256 -97.2581 256° West 128 147 8,000  Level Minneapolis Center
02:56PM 42.2172 -97.3081 257° West 132 152 8,000  Level Minneapolis Center
02:57PM 42.2028 -97.3658 251° West 134 154 8,000  Level Minneapolis Center
02:59PM 42.1825 -97.4089 238° Southwest 135 155 8,000  Level Minneapolis Center
03:00PM 42.1467 -97.4425 215° Southwest 144 166 8,000  Level Minneapolis Center
03:01PM 42.1147 -97.4778 219° Southwest 150 173 8,000  Level Minneapolis Center
03:02PM 42.0719 -97.5156 213° Southwest 152 175 8,000  Level Minneapolis Center
03:03PM 42.0322 -97.5394 204° Southwest 154 177 8,000  Level Minneapolis Center
03:04PM 41.9917 -97.5631 203° Southwest 155 178 8,000  Level Minneapolis Center
03:05PM 41.9522 -97.5911 208° Southwest 157 181 8,000  Level Minneapolis Center
03:06PM 41.9125 -97.6206 209° Southwest 160 184 8,000  Level Minneapolis Center
03:07PM 41.8797 -97.6528 216° Southwest 156 180 8,000  Level Minneapolis Center
03:08PM 41.8478 -97.7022 229° Southwest 151 174 8,000 -60 Level Minneapolis Center
03:09PM 41.8203 -97.7419 227° Southwest 147 169 7,900  Descending Minneapolis Center
03:10PM 41.7917 -97.7814 226° Southwest 147 169 8,000  Climbing Minneapolis Center
03:11PM 41.7642 -97.8219 228° Southwest 146 168 7,900 -60 Descending Minneapolis Center
03:12PM 41.7375 -97.8606 227° Southwest 145 167 7,900  Level Minneapolis Center
03:13PM 41.7078 -97.8994 224° Southwest 147 169 7,900  Level Minneapolis Center
03:14PM 41.6764 -97.9469 229° Southwest 144 166 7,900  Level Minneapolis Center
03:15PM 41.6472 -97.9875 226° Southwest 148 170 7,900  Level Minneapolis Center
03:16PM 41.6261 -98.0189 228° Southwest 145 167 7,900  Level Minneapolis Center
03:17PM 41.5928 -98.0681 228° Southwest 148 170 7,900  Level Minneapolis Center
03:18PM 41.5653 -98.1100 229° Southwest 149 171 7,900  Level Minneapolis Center
03:19PM 41.5367 -98.1481 225° Southwest 144 166 7,900  Level Minneapolis Center
03:20PM 41.5033 -98.1942 226° Southwest 145 167 8,000  Climbing Minneapolis Center
03:21PM 41.4764 -98.2333 227° Southwest 144 166 7,900 -60 Descending Minneapolis Center
03:22PM 41.4544 -98.2642 226° Southwest 144 166 7,900  Level Minneapolis Center
03:23PM 41.4150 -98.2978 213° Southwest 140 161 7,900  Level Minneapolis Center
03:24PM 41.3872 -98.3322 223° Southwest 138 159 7,900  Level Minneapolis Center
03:25PM 41.3692 -98.3761 241° Southwest 137 158 7,900  Level Minneapolis Center
03:27PM 41.3694 -98.4350 270° West 135 155 7,900  Level Minneapolis Center
03:28PM 41.3594 -98.4828 254° West 134 154 7,900  Level Minneapolis Center
03:29PM 41.3592 -98.5406 270° West 132 152 8,000  Climbing Minneapolis Center
03:30PM 41.3539 -98.5875 261° West 130 150 8,000  Level Minneapolis Center
03:31PM 41.3506 -98.6364 265° West 131 151 8,000  Level Minneapolis Center
03:32PM 41.3478 -98.6939 266° West 131 151 8,000 -60 Level Minneapolis Center
03:33PM 41.3392 -98.7406 256° West 130 150 7,900 -60 Descending Minneapolis Center
03:34PM 41.3325 -98.7889 260° West 132 152 7,900  Level Minneapolis Center
03:35PM 41.3292 -98.8369 265° West 132 152 8,000  Climbing Minneapolis Center
03:36PM 41.3239 -98.8858 262° West 134 154 8,000  Level Denver Center
03:37PM 41.3156 -98.9442 259° West 135 155 8,000 -60 Level Denver Center
03:38PM 41.3075 -98.9953 258° West 133 153 7,900 -60 Descending Denver Center
03:39PM 41.3031 -99.0428 263° West 135 155 7,900  Level Denver Center
03:40PM 41.2964 -99.0906 259° West 136 157 8,000  Climbing Denver Center
03:41PM 41.2914 -99.1386 262° West 133 153 8,000  Level Denver Center
03:42PM 41.2839 -99.1972 260° West 134 154 8,000  Level Denver Center
03:43PM 41.2781 -99.2464 261° West 134 154 8,000  Level Denver Center
03:44PM 41.2728 -99.2964 262° West 136 157 8,000  Level Denver Center
03:45PM 41.2672 -99.3456 261° West 136 157 8,000  Level Denver Center
03:46PM 41.2611 -99.3961 261° West 138 159 8,000  Level Denver Center
03:47PM 41.2539 -99.4531 260° West 137 158 8,000  Level Denver Center
03:49PM 41.2492 -99.5014 263° West 138 159 8,000  Level Denver Center
03:50PM 41.2419 -99.5572 260° West 138 159 8,000  Level Denver Center
03:51PM 41.2358 -99.6053 260° West 138 159 8,000  Level Denver Center
03:52PM 41.2278 -99.6597 259° West 136 157 8,000  Level Denver Center
03:53PM 41.2231 -99.7075 263° West 135 155 8,100  Climbing Denver Center
03:54PM 41.2181 -99.7639 263° West 138 159 8,100 -60 Level Denver Center
03:55PM 41.2108 -99.8133 259° West 141 162 8,000 -60 Descending Denver Center
03:56PM 41.2036 -99.8714 261° West 142 163 8,000  Level Denver Center
03:57PM 41.1986 -99.9208 262° West 141 162 8,000  Level Denver Center
03:58PM 41.1892 -99.9778 258° West 141 162 8,000  Level Denver Center
03:59PM 41.1836 -100.0272 262° West 142 163 8,000  Level Denver Center
04:00PM 41.1775 -100.0842 262° West 140 161 8,000  Level Denver Center
04:01PM 41.1683 -100.1411 258° West 140 161 8,100  Climbing Denver Center
04:02PM 41.1589 -100.1986 258° West 143 165 8,000 -60 Descending Denver Center
04:03PM 41.1528 -100.2475 261° West 141 162 8,000 -60 Level Denver Center
04:04PM 41.1475 -100.3058 263° West 142 163 7,900 -60 Descending Denver Center
04:05PM 41.1428 -100.3564 263° West 143 165 7,900  Level Denver Center
04:06PM 41.1342 -100.4144 259° West 144 166 7,900  Level Denver Center
04:07PM 41.1264 -100.4644 258° West 145 167 7,900  Level Denver Center
04:08PM 41.1186 -100.5228 260° West 143 165 7,900  Level Denver Center
04:09PM 41.1172 -100.5733 268° West 144 166 7,900  Level Denver Center
04:10PM 41.1089 -100.6225 257° West 142 163 7,900  Level Denver Center
04:11PM 41.1008 -100.6811 260° West 144 166 7,900  Level Denver Center
04:13PM 41.0950 -100.7408 263° West 147 169 7,900  Level Denver Center
04:14PM 41.0872 -100.7914 258° West 147 169 7,900  Level Denver Center
04:15PM 41.0792 -100.8511 260° West 148 170 7,900  Level Denver Center
04:16PM 41.0722 -100.9022 260° West 148 170 7,900  Level Denver Center
04:17PM 41.0658 -100.9633 262° West 149 171 7,900  Level Denver Center
04:18PM 41.0589 -101.0150 260° West 149 171 7,900  Level Denver Center
04:19PM 41.0500 -101.0739 259° West 148 170 7,900  Level Denver Center
04:20PM 41.0439 -101.1264 261° West 149 171 7,900  Level Denver Center
04:21PM 41.0369 -101.1883 262° West 151 174 7,900  Level Denver Center
04:22PM 41.0278 -101.2389 257° West 150 173 7,900  Level Denver Center
04:23PM 41.0208 -101.3000 261° West 150 173 7,900  Level Denver Center
04:24PM 41.0144 -101.3517 261° West 150 173 7,900  Level Denver Center
04:25PM 41.0053 -101.4128 259° West 150 173 7,900 180 Level Denver Center
04:26PM 40.9981 -101.4600 259° West 145 167 8,300 360 Climbing Denver Center
04:27PM 40.9922 -101.5114 261° West 134 154 8,700 300 Climbing Denver Center
04:28PM 40.9867 -101.5533 260° West 127 146 9,000 240 Climbing Denver Center
04:29PM 40.9781 -101.6031 257° West 124 143 9,200 180 Climbing Denver Center
04:30PM 40.9719 -101.6458 259° West 124 143 9,400 240 Climbing Denver Center
04:31PM 40.9664 -101.6886 260° West 124 143 9,800 240 Climbing Denver Center
04:32PM 40.9611 -101.7364 262° West 120 138 9,900  Climbing Denver Center
04:33PM 40.9542 -101.7811 258° West 124 143 9,900  Level Denver Center
04:34PM 40.9461 -101.8361 259° West 131 151 9,900  Level Denver Center
04:35PM 40.9400 -101.8822 260° West 133 153 10,000  Climbing Denver Center
04:36PM 40.9331 -101.9375 261° West 135 155 10,000  Level Denver Center
04:37PM 40.9258 -101.9853 259° West 137 158 10,000  Level Denver Center
04:38PM 40.9178 -102.0394 259° West 136 157 10,000 -60 Level Denver Center
04:39PM 40.9119 -102.0886 261° West 138 159 9,900 -60 Descending Denver Center
04:40PM 40.9039 -102.1444 259° West 139 160 9,900  Level Denver Center
04:41PM 40.8961 -102.1917 258° West 139 160 9,900  Level Denver Center
04:43PM 40.8878 -102.2481 259° West 140 161 9,900  Level Denver Center
04:44PM 40.8822 -102.2969 261° West 140 161 9,900  Level Denver Center
04:45PM 40.8719 -102.3500 256° West 136 157 9,900  Level Denver Center
04:46PM 40.8661 -102.3967 261° West 135 155 9,900  Level Denver Center
04:47PM 40.8600 -102.4519 262° West 136 157 9,900  Level Denver Center
04:48PM 40.8528 -102.4992 259° West 136 157 9,900  Level Denver Center
04:49PM 40.8469 -102.5475 261° West 137 158 9,900  Level Denver Center
04:50PM 40.8394 -102.6056 260° West 141 162 9,900  Level Denver Center
04:51PM 40.8314 -102.6519 257° West 138 159 10,000  Climbing Denver Center
04:52PM 40.8222 -102.7178 260° West 141 162 9,900 -60 Descending Denver Center
04:53PM 40.8136 -102.7722 258° West 138 159 9,900  Level Denver Center
04:54PM 40.8053 -102.8217 257° West 141 162 9,900  Level Denver Center
04:55PM 40.7956 -102.8761 257° West 138 159 9,900  Level Denver Center
04:56PM 40.7881 -102.9253 259° West 142 163 9,900  Level Denver Center
04:57PM 40.7817 -102.9742 260° West 142 163 9,900  Level Denver Center
04:58PM 40.7728 -103.0275 258° West 142 163 10,000  Climbing Denver Center
04:59PM 40.7661 -103.0683 258° West 143 165 10,000  Level Denver Center
05:00PM 40.7556 -103.1442 260° West 148 170 10,000  Level Denver Center
05:01PM 40.7478 -103.1967 259° West 147 169 10,100  Climbing Denver Center
05:02PM 40.7392 -103.2503 258° West 148 170 10,100 -60 Level Denver Center
05:03PM 40.7308 -103.2997 257° West 143 165 10,000 -60 Descending Denver Center
05:04PM 40.7236 -103.3500 259° West 140 161 10,000  Level Denver Center
05:05PM 40.7150 -103.4019 258° West 144 166 10,000  Level Denver Center
05:07PM 40.7039 -103.4617 256° West 140 161 10,000  Level Denver Center
05:08PM 40.6961 -103.5156 259° West 147 169 10,000  Level Denver Center
05:09PM 40.6878 -103.5664 258° West 145 167 10,000  Level Denver Center
05:10PM 40.6803 -103.6206 260° West 149 171 10,000  Level Denver Center
05:11PM 40.6739 -103.6750 261° West 151 174 10,000  Level Denver Center
05:12PM 40.6625 -103.7367 256° West 146 168 10,100  Climbing Denver Center
05:13PM 40.6536 -103.7903 258° West 150 173 10,000 -60 Descending Denver Center
05:14PM 40.6425 -103.8408 254° West 146 168 10,000  Level Denver Center
05:15PM 40.6336 -103.8958 258° West 151 174 10,000  Level Denver Center
05:16PM 40.6269 -103.9525 261° West 155 178 10,100  Climbing Denver Center
05:17PM 40.6181 -104.0039 257° West 150 173 10,000 -60 Descending Denver Center
05:18PM 40.6067 -104.0706 257° West 156 180 10,000  Level Denver Center
05:19PM 40.5967 -104.1267 257° West 159 183 10,000  Level Denver Center
05:20PM 40.5864 -104.1850 257° West 157 181 10,000  Level Denver Center
05:21PM 40.5767 -104.2411 257° West 158 182 10,000 -120 Level Denver Center
05:22PM 40.5683 -104.2994 259° West 152 175 9,800 -480 Descending Denver Center
05:23PM 40.5564 -104.3611 256° West 170 196 9,000 -360 Descending Denver Center
05:24PM 40.5489 -104.4233 261° West 174 200 9,100  Climbing Denver Center
05:25PM 40.5414 -104.4828 261° West 159 183 9,000 -60 Descending Denver Center
05:26PM 40.5300 -104.5361 254° West 154 177 9,000  Level Denver Center
05:27PM 40.5203 -104.5950 258° West 154 177 9,000  Level Denver Center
05:28PM 40.5117 -104.6497 258° West 153 176 9,000  Level Denver Center
05:29PM 40.5014 -104.7086 257° West 154 177 9,000  Level Denver Center
05:30PM 40.4917 -104.7631 257° West 153 176 9,000  Level Denver Center